Koun Maru — JK5556 — position and weather

sailwx.info

Track history (hours):
 
Tides and Currents Weather Stations Pressure Air Temp Water Temp Dewpoint Dewpoint Depression Visibility Wind Speed Wind Dir Waves Ship Positions

Koun Maru

Last reported at 2017-Dec-17 05:55 UTC. Time now 2017-Dec-17 16:00 UTC.
Position N 34°38' E 135°27'.

Length 40 m.

Type: Tanker. MMSI: 431401871.

Date/timePositionNaut miles runAvg speedWind from/ knotsBaromVisibWave heightAir tempDewpointWater temp
2017-Dec-17 05:55N 34°38' E 135°27'0 0.0
2017-Dec-17 05:29N 34°38' E 135°27'0 0.0
2017-Dec-17 04:59N 34°38' E 135°27'0 0.0
2017-Dec-16 08:51N 34°38' E 135°27'2 6.1
2017-Dec-16 08:30N 34°37' E 135°25'510.4
2017-Dec-16 08:00N 34°33' E 135°21'510.7
2017-Dec-16 07:30N 34°30' E 135°16'510.5
2017-Dec-16 07:00N 34°26' E 135°11'510.3
2017-Dec-16 06:31N 34°22' E 135°07'510.1
2017-Dec-16 06:00N 34°18' E 135°04'4 7.9
2017-Dec-16 05:27N 34°14' E 135°07'1 0.2
2017-Dec-16 02:55N 34°14' E 135°08'0 1.0
2017-Dec-16 02:30N 34°14' E 135°07'1 1.1
2017-Dec-16 01:52N 34°15' E 135°06'0 0.0
2017-Dec-16 01:16N 34°15' E 135°06'0 0.0
2017-Dec-16 00:55N 34°15' E 135°06'0 0.0
2017-Dec-16 00:29N 34°15' E 135°06'0 0.0
2017-Dec-15 23:56N 34°15' E 135°06'0 0.0
2017-Dec-15 22:59N 34°15' E 135°06'0 0.0
2017-Dec-15 22:29N 34°15' E 135°06'0 0.0
2017-Dec-15 21:59N 34°15' E 135°06'0 0.0
2017-Dec-15 21:29N 34°15' E 135°06'0 0.0
2017-Dec-15 20:59N 34°15' E 135°06'0 0.0
2017-Dec-15 20:26N 34°15' E 135°06'0 0.0
2017-Dec-15 19:41N 34°15' E 135°06'0 0.0
2017-Dec-15 19:29N 34°15' E 135°06'0 0.0
2017-Dec-15 18:59N 34°15' E 135°06'0 0.0
2017-Dec-15 18:29N 34°15' E 135°06'0 0.0
2017-Dec-15 17:59N 34°15' E 135°06'0 0.0
2017-Dec-15 17:26N 34°15' E 135°06'0 0.0
2017-Dec-15 16:55N 34°15' E 135°06'0 0.0
2017-Dec-15 16:28N 34°15' E 135°06'0 0.0
2017-Dec-15 15:10N 34°15' E 135°06'0 0.0
2017-Dec-15 14:57N 34°15' E 135°06'0 0.0
2017-Dec-15 14:26N 34°15' E 135°06'0 0.0
2017-Dec-15 13:56N 34°15' E 135°06'0 0.0
2017-Dec-15 13:20N 34°15' E 135°06'0 0.0
2017-Dec-15 12:53N 34°15' E 135°06'0 0.0
2017-Dec-15 12:29N 34°15' E 135°06'0 0.0
2017-Dec-15 11:50N 34°15' E 135°06'0 0.0
2017-Dec-15 10:35N 34°15' E 135°06'0 0.0
2017-Dec-15 10:14N 34°15' E 135°06'0 0.0
2017-Dec-15 09:41N 34°15' E 135°06'0 0.0
2017-Dec-15 09:20N 34°15' E 135°06'0 0.2
2017-Dec-15 07:38N 34°14' E 135°06'3 0.7
2017-Dec-15 03:40N 34°12' E 135°07'2 1.2
2017-Dec-15 02:07N 34°13' E 135°09'7 6.5
2017-Dec-15 01:00N 34°20' E 135°05'5 9.9
2017-Dec-15 00:29N 34°24' E 135°09'21 1.3
2017-Dec-14 08:21N 34°38' E 135°28'0 0.0
2017-Dec-14 07:57N 34°38' E 135°28'0 0.0
2017-Dec-14 07:30N 34°38' E 135°28'0 0.0
2017-Dec-14 06:57N 34°38' E 135°28'0 0.0
2017-Dec-14 06:28N 34°38' E 135°28'0 0.0
2017-Dec-14 05:58N 34°38' E 135°28'2 5.0
2017-Dec-14 05:30N 34°37' E 135°25'3 5.5
2017-Dec-14 04:59N 34°34' E 135°26'0 0.0
2017-Dec-14 04:29N 34°34' E 135°26'0 0.2
2017-Dec-14 04:00N 34°34' E 135°26'3 5.8
2017-Dec-14 03:30N 34°34' E 135°22'510.1
2017-Dec-14 03:00N 34°31' E 135°18'510.1
2017-Dec-14 02:30N 34°27' E 135°13'5 9.7
2017-Dec-14 02:00N 34°24' E 135°09'5 9.7
2017-Dec-14 01:30N 34°20' E 135°06'6 8.3
2017-Dec-14 00:44N 34°14' E 135°04'2 9.8
2017-Dec-14 00:30N 34°11' E 135°05'4 0.2
2017-Dec-13 00:38N 34°08' E 135°07'1 9.3
2017-Dec-13 00:30N 34°09' E 135°06'5 9.9
2017-Dec-13 00:00N 34°13' E 135°04'510.1
2017-Dec-12 23:29N 34°19' E 135°04'4 9.0
2017-Dec-12 23:00N 34°21' E 135°08'4 8.4
2017-Dec-12 22:30N 34°24' E 135°12'3 6.7
2017-Dec-12 22:00N 34°25' E 135°16'0 0.0
2017-Dec-12 21:29N 34°25' E 135°16'0 0.0
2017-Dec-12 20:59N 34°25' E 135°16'0 0.0
2017-Dec-12 20:29N 34°25' E 135°16'0 0.0
2017-Dec-12 19:56N 34°25' E 135°16'0 0.0
2017-Dec-12 19:29N 34°25' E 135°16'0 0.0
2017-Dec-12 19:00N 34°25' E 135°16'0 0.0
2017-Dec-12 18:27N 34°25' E 135°16'0 0.0
2017-Dec-12 18:00N 34°25' E 135°16'0 0.0
2017-Dec-12 17:27N 34°25' E 135°16'0 0.0
2017-Dec-12 16:59N 34°25' E 135°16'0 0.0
2017-Dec-12 16:29N 34°25' E 135°16'0 0.0
2017-Dec-12 15:59N 34°25' E 135°16'0 0.0
2017-Dec-12 15:26N 34°25' E 135°16'0 0.0
2017-Dec-12 14:59N 34°25' E 135°16'0 0.0
2017-Dec-12 14:29N 34°25' E 135°16'0 0.0
2017-Dec-12 13:59N 34°25' E 135°16'0 0.0
2017-Dec-12 13:29N 34°25' E 135°16'0 0.0
2017-Dec-12 12:59N 34°25' E 135°16'0 0.0
2017-Dec-12 12:29N 34°25' E 135°16'0 0.0
2017-Dec-12 11:59N 34°25' E 135°16'0 0.0
2017-Dec-12 11:29N 34°25' E 135°16'0 0.0
2017-Dec-12 10:56N 34°25' E 135°16'0 0.0
2017-Dec-12 10:29N 34°25' E 135°16'0 0.0
2017-Dec-12 09:59N 34°25' E 135°16'0 0.0
2017-Dec-12 09:29N 34°25' E 135°16'0 0.0
2017-Dec-12 08:59N 34°25' E 135°16'0 0.0
2017-Dec-12 08:26N 34°25' E 135°16'0 0.0
2017-Dec-12 07:59N 34°25' E 135°16'4 7.4
2017-Dec-12 07:31N 34°28' E 135°18'5 8.9
2017-Dec-12 07:00N 34°32' E 135°21'4 8.9
2017-Dec-12 06:30N 34°36' E 135°24'2 4.3
2017-Dec-12 06:00N 34°34' E 135°26'0 0.0
2017-Dec-12 05:28N 34°34' E 135°26'2 3.8
2017-Dec-12 05:00N 34°36' E 135°25'3 5.2
2017-Dec-12 04:29N 34°38' E 135°27'0 0.0
2017-Dec-12 03:59N 34°38' E 135°27'0 0.0
2017-Dec-12 03:29N 34°38' E 135°27'0 0.0
2017-Dec-12 02:59N 34°38' E 135°27'0 0.0
2017-Dec-12 02:29N 34°38' E 135°27'0 0.0
2017-Dec-12 02:00N 34°38' E 135°27'0 0.0
2017-Dec-12 01:26N 34°38' E 135°27'0 0.0
2017-Dec-12 00:59N 34°38' E 135°27'0 0.0
2017-Dec-12 00:29N 34°38' E 135°27'0 0.0
2017-Dec-11 02:30N 34°38' E 135°27'0 0.0
2017-Dec-11 01:56N 34°38' E 135°27'0 0.0
2017-Dec-11 01:29N 34°38' E 135°27'0 0.0
2017-Dec-11 00:59N 34°38' E 135°27'0 0.0
2017-Dec-11 00:30N 34°38' E 135°27'0 0.0
2017-Dec-10 00:34N 34°38' E 135°27'0 0.1
2017-Dec-10 00:30N 34°38' E 135°27'2 3.1
2017-Dec-10 00:00N 34°37' E 135°26'0 0.0
2017-Dec-09 23:27N 34°37' E 135°26'0 0.0
2017-Dec-09 22:57N 34°37' E 135°26'2 3.0
2017-Dec-09 22:27N 34°38' E 135°27'0 0.0
2017-Dec-09 08:44N 34°38' E 135°27'0 0.2
2017-Dec-09 08:26N 34°38' E 135°27'0 0.1
2017-Dec-09 07:59N 34°38' E 135°27'0 0.1
2017-Dec-09 07:29N 34°38' E 135°27'0 0.1
2017-Dec-09 06:59N 34°38' E 135°27'0 0.0
2017-Dec-09 06:29N 34°38' E 135°27'0 0.0
2017-Dec-09 05:59N 34°38' E 135°27'0 0.1
2017-Dec-09 05:30N 34°38' E 135°27'3 7.0
2017-Dec-09 05:00N 34°36' E 135°24'4 8.2
2017-Dec-09 04:29N 34°32' E 135°24'0 0.0
2017-Dec-09 03:59N 34°32' E 135°24'0 0.0
2017-Dec-09 03:29N 34°32' E 135°24'1 2.6
2017-Dec-09 03:00N 34°32' E 135°23'611.1
2017-Dec-09 02:30N 34°29' E 135°17'611.2
2017-Dec-09 02:00N 34°26' E 135°11'611.3
2017-Dec-09 01:30N 34°22' E 135°07'611.7
2017-Dec-09 01:00N 34°17' E 135°04'  
Track history (hours):
 
Tides and Currents Weather Stations Pressure Air Temp Water Temp Dewpoint Dewpoint Depression Visibility Wind Speed Wind Dir Waves Ship Positions

Koun Maru

Last reported at 2017-Dec-17 05:55 UTC. Time now 2017-Dec-17 16:00 UTC.
Position N 34°38' E 135°27'.

Length 40 m.

Type: Tanker. MMSI: 431401871.

Date/timePositionNaut miles runAvg speedWind from/ knotsBaromVisibWave heightAir tempDewpointWater temp
2017-Dec-17 05:55N 34°38' E 135°27'0 0.0
2017-Dec-17 05:29N 34°38' E 135°27'0 0.0
2017-Dec-17 04:59N 34°38' E 135°27'0 0.0
2017-Dec-16 08:51N 34°38' E 135°27'2 6.1
2017-Dec-16 08:30N 34°37' E 135°25'510.4
2017-Dec-16 08:00N 34°33' E 135°21'510.7
2017-Dec-16 07:30N 34°30' E 135°16'510.5
2017-Dec-16 07:00N 34°26' E 135°11'510.3
2017-Dec-16 06:31N 34°22' E 135°07'510.1
2017-Dec-16 06:00N 34°18' E 135°04'4 7.9
2017-Dec-16 05:27N 34°14' E 135°07'1 0.2
2017-Dec-16 02:55N 34°14' E 135°08'0 1.0
2017-Dec-16 02:30N 34°14' E 135°07'1 1.1
2017-Dec-16 01:52N 34°15' E 135°06'0 0.0
2017-Dec-16 01:16N 34°15' E 135°06'0 0.0
2017-Dec-16 00:55N 34°15' E 135°06'0 0.0
2017-Dec-16 00:29N 34°15' E 135°06'0 0.0
2017-Dec-15 23:56N 34°15' E 135°06'0 0.0
2017-Dec-15 22:59N 34°15' E 135°06'0 0.0
2017-Dec-15 22:29N 34°15' E 135°06'0 0.0
2017-Dec-15 21:59N 34°15' E 135°06'0 0.0
2017-Dec-15 21:29N 34°15' E 135°06'0 0.0
2017-Dec-15 20:59N 34°15' E 135°06'0 0.0
2017-Dec-15 20:26N 34°15' E 135°06'0 0.0
2017-Dec-15 19:41N 34°15' E 135°06'0 0.0
2017-Dec-15 19:29N 34°15' E 135°06'0 0.0
2017-Dec-15 18:59N 34°15' E 135°06'0 0.0
2017-Dec-15 18:29N 34°15' E 135°06'0 0.0
2017-Dec-15 17:59N 34°15' E 135°06'0 0.0
2017-Dec-15 17:26N 34°15' E 135°06'0 0.0
2017-Dec-15 16:55N 34°15' E 135°06'0 0.0
2017-Dec-15 16:28N 34°15' E 135°06'0 0.0
2017-Dec-15 15:10N 34°15' E 135°06'0 0.0
2017-Dec-15 14:57N 34°15' E 135°06'0 0.0
2017-Dec-15 14:26N 34°15' E 135°06'0 0.0
2017-Dec-15 13:56N 34°15' E 135°06'0 0.0
2017-Dec-15 13:20N 34°15' E 135°06'0 0.0
2017-Dec-15 12:53N 34°15' E 135°06'0 0.0
2017-Dec-15 12:29N 34°15' E 135°06'0 0.0
2017-Dec-15 11:50N 34°15' E 135°06'0 0.0
2017-Dec-15 10:35N 34°15' E 135°06'0 0.0
2017-Dec-15 10:14N 34°15' E 135°06'0 0.0
2017-Dec-15 09:41N 34°15' E 135°06'0 0.0
2017-Dec-15 09:20N 34°15' E 135°06'0 0.2
2017-Dec-15 07:38N 34°14' E 135°06'3 0.7
2017-Dec-15 03:40N 34°12' E 135°07'2 1.2
2017-Dec-15 02:07N 34°13' E 135°09'7 6.5
2017-Dec-15 01:00N 34°20' E 135°05'5 9.9
2017-Dec-15 00:29N 34°24' E 135°09'21 1.3
2017-Dec-14 08:21N 34°38' E 135°28'0 0.0
2017-Dec-14 07:57N 34°38' E 135°28'0 0.0
2017-Dec-14 07:30N 34°38' E 135°28'0 0.0
2017-Dec-14 06:57N 34°38' E 135°28'0 0.0
2017-Dec-14 06:28N 34°38' E 135°28'0 0.0
2017-Dec-14 05:58N 34°38' E 135°28'2 5.0
2017-Dec-14 05:30N 34°37' E 135°25'3 5.5
2017-Dec-14 04:59N 34°34' E 135°26'0 0.0
2017-Dec-14 04:29N 34°34' E 135°26'0 0.2
2017-Dec-14 04:00N 34°34' E 135°26'3 5.8
2017-Dec-14 03:30N 34°34' E 135°22'510.1
2017-Dec-14 03:00N 34°31' E 135°18'510.1
2017-Dec-14 02:30N 34°27' E 135°13'5 9.7
2017-Dec-14 02:00N 34°24' E 135°09'5 9.7
2017-Dec-14 01:30N 34°20' E 135°06'6 8.3
2017-Dec-14 00:44N 34°14' E 135°04'2 9.8
2017-Dec-14 00:30N 34°11' E 135°05'4 0.2
2017-Dec-13 00:38N 34°08' E 135°07'1 9.3
2017-Dec-13 00:30N 34°09' E 135°06'5 9.9
2017-Dec-13 00:00N 34°13' E 135°04'510.1
2017-Dec-12 23:29N 34°19' E 135°04'4 9.0
2017-Dec-12 23:00N 34°21' E 135°08'4 8.4
2017-Dec-12 22:30N 34°24' E 135°12'3 6.7
2017-Dec-12 22:00N 34°25' E 135°16'0 0.0
2017-Dec-12 21:29N 34°25' E 135°16'0 0.0
2017-Dec-12 20:59N 34°25' E 135°16'0 0.0
2017-Dec-12 20:29N 34°25' E 135°16'0 0.0
2017-Dec-12 19:56N 34°25' E 135°16'0 0.0
2017-Dec-12 19:29N 34°25' E 135°16'0 0.0
2017-Dec-12 19:00N 34°25' E 135°16'0 0.0
2017-Dec-12 18:27N 34°25' E 135°16'0 0.0
2017-Dec-12 18:00N 34°25' E 135°16'0 0.0
2017-Dec-12 17:27N 34°25' E 135°16'0 0.0
2017-Dec-12 16:59N 34°25' E 135°16'0 0.0
2017-Dec-12 16:29N 34°25' E 135°16'0 0.0
2017-Dec-12 15:59N 34°25' E 135°16'0 0.0
2017-Dec-12 15:26N 34°25' E 135°16'0 0.0
2017-Dec-12 14:59N 34°25' E 135°16'0 0.0
2017-Dec-12 14:29N 34°25' E 135°16'0 0.0
2017-Dec-12 13:59N 34°25' E 135°16'0 0.0
2017-Dec-12 13:29N 34°25' E 135°16'0 0.0
2017-Dec-12 12:59N 34°25' E 135°16'0 0.0
2017-Dec-12 12:29N 34°25' E 135°16'0 0.0
2017-Dec-12 11:59N 34°25' E 135°16'0 0.0
2017-Dec-12 11:29N 34°25' E 135°16'0 0.0
2017-Dec-12 10:56N 34°25' E 135°16'0 0.0
2017-Dec-12 10:29N 34°25' E 135°16'0 0.0
2017-Dec-12 09:59N 34°25' E 135°16'0 0.0
2017-Dec-12 09:29N 34°25' E 135°16'0 0.0
2017-Dec-12 08:59N 34°25' E 135°16'0 0.0
2017-Dec-12 08:26N 34°25' E 135°16'0 0.0
2017-Dec-12 07:59N 34°25' E 135°16'4 7.4
2017-Dec-12 07:31N 34°28' E 135°18'5 8.9
2017-Dec-12 07:00N 34°32' E 135°21'4 8.9
2017-Dec-12 06:30N 34°36' E 135°24'2 4.3
2017-Dec-12 06:00N 34°34' E 135°26'0 0.0
2017-Dec-12 05:28N 34°34' E 135°26'2 3.8
2017-Dec-12 05:00N 34°36' E 135°25'3 5.2
2017-Dec-12 04:29N 34°38' E 135°27'0 0.0
2017-Dec-12 03:59N 34°38' E 135°27'0 0.0
2017-Dec-12 03:29N 34°38' E 135°27'0 0.0
2017-Dec-12 02:59N 34°38' E 135°27'0 0.0
2017-Dec-12 02:29N 34°38' E 135°27'0 0.0
2017-Dec-12 02:00N 34°38' E 135°27'0 0.0
2017-Dec-12 01:26N 34°38' E 135°27'0 0.0
2017-Dec-12 00:59N 34°38' E 135°27'0 0.0
2017-Dec-12 00:29N 34°38' E 135°27'0 0.0
2017-Dec-11 02:30N 34°38' E 135°27'0 0.0
2017-Dec-11 01:56N 34°38' E 135°27'0 0.0
2017-Dec-11 01:29N 34°38' E 135°27'0 0.0
2017-Dec-11 00:59N 34°38' E 135°27'0 0.0
2017-Dec-11 00:30N 34°38' E 135°27'0 0.0
2017-Dec-10 00:34N 34°38' E 135°27'0 0.1
2017-Dec-10 00:30N 34°38' E 135°27'2 3.1
2017-Dec-10 00:00N 34°37' E 135°26'0 0.0
2017-Dec-09 23:27N 34°37' E 135°26'0 0.0
2017-Dec-09 22:57N 34°37' E 135°26'2 3.0
2017-Dec-09 22:27N 34°38' E 135°27'0 0.0
2017-Dec-09 08:44N 34°38' E 135°27'0 0.2
2017-Dec-09 08:26N 34°38' E 135°27'0 0.1
2017-Dec-09 07:59N 34°38' E 135°27'0 0.1
2017-Dec-09 07:29N 34°38' E 135°27'0 0.1
2017-Dec-09 06:59N 34°38' E 135°27'0 0.0
2017-Dec-09 06:29N 34°38' E 135°27'0 0.0
2017-Dec-09 05:59N 34°38' E 135°27'0 0.1
2017-Dec-09 05:30N 34°38' E 135°27'3 7.0
2017-Dec-09 05:00N 34°36' E 135°24'4 8.2
2017-Dec-09 04:29N 34°32' E 135°24'0 0.0
2017-Dec-09 03:59N 34°32' E 135°24'0 0.0
2017-Dec-09 03:29N 34°32' E 135°24'1 2.6
2017-Dec-09 03:00N 34°32' E 135°23'611.1
2017-Dec-09 02:30N 34°29' E 135°17'611.2
2017-Dec-09 02:00N 34°26' E 135°11'611.3
2017-Dec-09 01:30N 34°22' E 135°07'611.7
2017-Dec-09 01:00N 34°17' E 135°04'  

Dump ship's entire track history